General Aviation Weather

Text Reports

Enter one or more of the following location identifiers separated by a space:

Zip Code, Four-Character ICAO or Three-Character IATA airport codes.

METAR - Aviation Routine Weather Report
KMWO - Middletown, Ohio
Updated at 10:35 AM GMT on June 03, 2015 (6:35 AM EDT):
METAR KMWO 031035Z AUTO 00000KT 3SM BR OVC020 14/12 A3009 RMK AO2 T01380121
TAF - Terminal Area Forecast
KMWO - Middletown, Ohio
Updated at 10:35 AM GMT on June 03, 2015 (6:35 AM EDT):
No TAF is currently available for this location.
Decoded:
No decoded TAF is available.
PIREP - Pilot Weather Report
KMWO - Middletown, Ohio
Updated at 10:35 AM GMT on June 03, 2015 (6:35 AM EDT):
No PIREP is currently available for this location.
AIRMET - Airmens Meteorological Information
KMWO - Middletown, Ohio
Updated at 10:35 AM GMT on June 03, 2015 (6:35 AM EDT):
No AIRMET is currently available for this location.
SIGMET - Significant Meteorological Information
KMWO - Middletown, Ohio
Updated at 10:35 AM GMT on June 03, 2015 (6:35 AM EDT):
No SIGMET is currently available for this location.
NOTAM - Notice to Airmen
KMWO - Middletown, Ohio
Updated at 10:35 AM GMT on June 03, 2015 (6:35 AM EDT):
No NOTAM is currently available for this location.
Forecast Area
KMWO - Middletown, Ohio
Updated at 10:35 AM GMT on June 03, 2015 (6:35 AM EDT):
No NOTAM is currently available for this location.
Aviation Weather Maps